CST,Max TemperatureF,Mean TemperatureF,Min TemperatureF,Max Dew PointF,MeanDew PointF,Min DewpointF,Max Humidity, Mean Humidity, Min Humidity, Max Sea Level PressureIn, Mean Sea Level PressureIn, Min Sea Level PressureIn, Max VisibilityMiles, Mean VisibilityMiles, Min VisibilityMiles, Max Wind SpeedMPH, Mean Wind SpeedMPH, Max Gust SpeedMPH,PrecipitationIn, CloudCover, Events, WindDirDegrees
2013-12-1,64,54,44,49,43,37,96,72,54,30.32,30.20,30.05,10,10,10,6,3,,0.00,2,,29
2013-12-2,70,59,48,52,47,41,96,72,36,30.04,29.93,29.84,10,10,9,9,3,,T,3,Rain,200
2013-12-3,75,65,54,63,59,52,100,85,65,29.95,29.90,29.83,10,8,1,17,7,24,0.42,5,Rain,189
2013-12-4,75,67,59,68,64,59,100,93,71,30.06,30.00,29.94,10,6,0,13,6,,0.07,7,Fog-Rain,159
2013-12-5,82,75,68,71,68,66,100,89,64,30.13,30.07,30.02,10,8,1,15,9,23,1.50,7,Rain,204
2013-12-6,82,76,69,70,68,66,97,86,62,30.15,30.10,30.06,10,10,6,18,10,23,0.00,7,,189
2013-12-7,71,61,50,70,54,48,100,92,82,30.29,30.23,30.12,10,8,2,13,8,,0.04,8,Rain,349
2013-12-8,78,65,51,65,58,50,100,92,60,30.25,30.19,30.11,10,5,0,10,5,,0.00,6,Fog,120
2013-12-9,74,70,65,70,67,64,100,95,82,30.16,30.11,30.06,10,6,0,13,7,22,0.32,8,Fog-Rain,199
2013-12-10,68,53,38,67,49,33,100,85,59,30.37,30.21,30.05,10,9,3,21,11,31,0.10,5,Rain,320
2013-12-11,63,49,34,44,38,31,89,73,50,30.42,30.37,30.33,10,10,10,9,6,,0.00,0,,27
2013-12-12,58,46,34,40,28,20,82,55,25,30.51,30.43,30.37,10,10,10,13,7,18,0.00,1,,1
2013-12-13,57,44,30,45,33,23,82,64,43,30.40,30.29,30.13,10,10,10,8,5,,0.00,0,,71
2013-12-14,70,60,50,66,60,46,100,90,83,30.12,29.94,29.85,10,8,1,21,9,25,0.33,7,Rain-Thunderstorm,184
2013-12-15,60,47,34,54,40,31,100,82,59,30.28,30.12,29.94,10,10,4,21,12,25,0.06,6,Rain,325
2013-12-16,60,45,30,37,32,28,96,71,32,30.35,30.30,30.27,10,8,4,9,5,,0.00,0,,330
2013-12-17,64,49,34,36,33,31,89,57,30,30.35,30.29,30.23,10,10,7,10,4,,0.00,0,,272
2013-12-18,62,49,36,37,33,27,89,63,26,30.41,30.33,30.27,10,10,10,9,6,,0.00,0,,348
2013-12-19,66,51,35,38,32,26,89,57,24,30.35,30.28,30.21,10,10,10,8,5,,0.00,0,,114
2013-12-20,73,56,39,59,50,35,96,80,61,30.24,30.18,30.12,10,10,7,9,4,,0.00,3,,118
2013-12-21,79,70,60,68,65,59,100,85,66,30.12,30.03,29.96,10,10,7,21,10,29,T,8,Rain,159
2013-12-22,82,71,59,72,66,57,100,88,65,30.14,30.03,29.96,10,8,1,21,14,32,1.39,8,Rain-Thunderstorm,202
2013-12-23,59,50,41,57,51,34,100,94,76,30.34,30.18,30.09,10,6,2,18,10,23,2.59,8,Rain,336
2013-12-24,52,42,31,32,28,25,92,65,36,30.48,30.40,30.35,10,10,8,17,12,22,0.00,0,,344
2013-12-25,53,41,28,39,33,24,85,71,59,30.44,30.37,30.30,10,10,10,10,5,,0.00,3,,45
2013-12-26,59,50,40,43,39,35,82,69,55,30.37,30.32,30.28,10,10,10,10,6,,0.00,3,,25
2013-12-27,59,50,41,38,36,33,79,62,41,30.43,30.37,30.33,10,10,10,12,7,,0.00,1,,39
2013-12-28,51,48,45,50,42,34,100,83,54,30.33,30.12,29.92,10,7,2,14,10,22,1.78,8,Rain,72
2013-12-29,53,46,39,52,46,39,100,92,82,30.13,30.03,29.87,10,8,0,15,7,,0.04,6,Fog-Rain,323
2013-12-30,56,46,36,47,43,37,100,85,62,30.28,30.21,30.13,10,9,3,6,2,,T,1,,284
2013-12-31,49,47,44,47,41,38,93,82,71,30.43,30.37,30.29,10,9,7,10,6,,T,3,,355